Time;durP1;ratioP1;P1;durP2;ratioP2;P2;SDS_P1;SDS_P2;PMS_P1;PMS_P2;Temp;Humidity;BMP_temperature;BMP_pressure;BME280_temperature;BME280_humidity;BME280_pressure;Samples;Min_cycle;Max_cycle;Signal;HPM_P1;HPM_P2
2023/12/23 00:01:51;;;;;;;1.95;0.50;;;12.50;73.30;;;;;;2241844;57;21900;-70
2023/12/23 00:04:17;;;;;;;2.17;0.55;;;12.50;73.40;;;;;;2234752;57;21211;-70
2023/12/23 00:06:44;;;;;;;1.20;0.47;;;12.50;73.40;;;;;;2464393;56;21050;-70
2023/12/23 00:09:15;;;;;;;1.67;0.45;;;12.50;73.30;;;;;;2243583;57;21054;-69
2023/12/23 00:11:42;;;;;;;2.70;0.50;;;12.50;73.30;;;;;;2242527;57;21031;-70
2023/12/23 00:14:09;;;;;;;0.93;0.30;;;12.50;73.30;;;;;;2462015;55;21007;-70
2023/12/23 00:16:36;;;;;;;1.95;0.50;;;12.50;73.30;;;;;;2242688;57;21008;-71
2023/12/23 00:19:06;;;;;;;1.52;0.40;;;12.50;73.30;;;;;;2462676;56;21700;-70
2023/12/23 00:21:34;;;;;;;0.93;0.32;;;12.40;73.20;;;;;;2465997;55;21355;-71
2023/12/23 00:24:00;;;;;;;1.75;0.32;;;12.40;73.20;;;;;;2468003;55;20974;-70
2023/12/23 00:26:26;;;;;;;2.40;0.50;;;12.40;73.30;;;;;;2460790;55;21006;-71
2023/12/23 00:28:53;;;;;;;1.45;0.50;;;12.40;73.30;;;;;;2461889;55;21835;-70
2023/12/23 00:31:20;;;;;;;1.50;0.45;;;12.40;73.30;;;;;;2461542;55;20974;-70
2023/12/23 00:33:48;;;;;;;1.65;0.37;;;12.40;73.30;;;;;;2467332;56;20957;-69
2023/12/23 00:36:14;;;;;;;2.08;0.60;;;12.40;73.30;;;;;;2242784;56;21035;-70
2023/12/23 00:38:40;;;;;;;1.20;0.40;;;12.40;73.30;;;;;;2466569;55;20947;-71
2023/12/23 00:41:07;;;;;;;1.20;0.50;;;12.40;73.30;;;;;;2460492;55;21010;-70
2023/12/23 00:43:33;;;;;;;1.65;0.40;;;12.40;73.40;;;;;;2243652;56;21027;-71
2023/12/23 00:45:59;;;;;;;1.10;0.40;;;12.30;73.30;;;;;;2243518;56;20958;-70
2023/12/23 00:48:27;;;;;;;1.10;0.30;;;12.30;73.30;;;;;;2449834;55;20955;-70
2023/12/23 00:50:54;;;;;;;2.20;0.55;;;12.30;73.30;;;;;;2243468;56;21043;-70
2023/12/23 00:53:25;;;;;;;2.08;0.40;;;12.30;73.30;;;;;;2243715;57;21066;-71
2023/12/23 00:59:20;;;;;;;1.00;0.32;;;12.30;72.90;;;;;;2467739;56;20991;-71
2023/12/23 01:01:46;;;;;;;2.53;0.50;;;12.30;73.30;;;;;;2466207;56;21042;-70
2023/12/23 01:04:13;;;;;;;2.47;0.40;;;12.30;73.40;;;;;;2471413;55;21031;-71
2023/12/23 01:06:42;;;;;;;1.35;0.40;;;12.30;73.40;;;;;;2265963;55;21571;-71
2023/12/23 01:12:37;;;;;;;1.17;0.40;;;12.30;73.00;;;;;;2490565;55;21397;-70
2023/12/23 01:15:04;;;;;;;2.40;0.40;;;12.30;73.50;;;;;;2459498;55;21579;-70
2023/12/23 01:17:31;;;;;;;2.28;0.47;;;12.30;73.50;;;;;;2265504;55;20938;-70
2023/12/23 01:19:58;;;;;;;2.42;0.40;;;12.20;73.40;;;;;;2464486;55;21912;-70
2023/12/23 01:22:24;;;;;;;1.85;0.40;;;12.20;73.40;;;;;;2456608;55;20943;-70
2023/12/23 01:24:51;;;;;;;1.73;0.35;;;12.20;73.40;;;;;;2494506;55;20931;-70
2023/12/23 01:27:19;;;;;;;1.12;0.40;;;12.20;73.50;;;;;;2495372;55;21042;-70
2023/12/23 01:29:46;;;;;;;1.37;0.30;;;12.20;73.50;;;;;;2494377;55;21038;-70
2023/12/23 01:32:13;;;;;;;0.40;0.20;;;12.20;73.50;;;;;;2492916;55;21511;-71
2023/12/23 01:38:14;;;;;;;1.20;0.37;;;12.20;73.00;;;;;;2494457;55;21508;-70
2023/12/23 01:40:40;;;;;;;2.10;0.40;;;12.20;73.30;;;;;;2488111;55;20959;-69
2023/12/23 01:43:07;;;;;;;0.88;0.30;;;12.20;73.40;;;;;;2269179;56;21038;-71
2023/12/23 01:45:33;;;;;;;1.12;0.37;;;12.20;73.50;;;;;;2495002;55;21003;-71
2023/12/23 01:48:01;;;;;;;0.60;0.20;;;12.20;73.50;;;;;;2494273;55;21488;-70
2023/12/23 01:50:27;;;;;;;0.65;0.30;;;12.20;73.60;;;;;;2263905;55;20974;-72
2023/12/23 01:52:57;;;;;;;0.77;0.30;;;12.20;73.60;;;;;;2494579;55;20943;-72
2023/12/23 01:55:26;;;;;;;0.68;0.20;;;12.20;73.50;;;;;;2263723;56;21001;-70
2023/12/23 01:57:53;;;;;;;0.80;0.28;;;12.20;73.60;;;;;;2452227;55;20977;-71
2023/12/23 02:00:20;;;;;;;0.57;0.30;;;12.20;73.60;;;;;;2267031;56;21444;-71
2023/12/23 02:02:47;;;;;;;1.05;0.40;;;12.20;73.60;;;;;;2492671;55;21005;-71
2023/12/23 02:05:15;;;;;;;1.37;0.40;;;12.20;73.60;;;;;;2492201;55;20946;-71
2023/12/23 02:07:45;;;;;;;0.88;0.32;;;12.20;73.60;;;;;;2493730;55;21774;-72
2023/12/23 02:10:13;;;;;;;0.47;0.20;;;12.10;73.50;;;;;;2492027;55;20959;-71
2023/12/23 02:13:26;;;;;;;0.57;0.30;;;12.10;73.40;;;;;;2491341;55;21448;-71
2023/12/23 02:15:53;;;;;;;1.40;0.40;;;12.10;73.40;;;;;;2519556;54;20948;-71
2023/12/23 02:18:19;;;;;;;1.08;0.40;;;12.10;73.40;;;;;;2290648;56;21794;-71
2023/12/23 02:20:49;;;;;;;1.25;0.30;;;12.10;73.40;;;;;;2525772;54;20956;-71
2023/12/23 02:23:24;;;;;;;0.50;0.28;;;12.10;73.30;;;;;;2291599;55;20967;-70
2023/12/23 02:25:56;;;;;;;0.90;0.30;;;12.10;73.40;;;;;;2265291;55;20983;-71
2023/12/23 02:28:22;;;;;;;0.80;0.40;;;12.10;73.40;;;;;;2264638;55;21539;-71
2023/12/23 02:30:50;;;;;;;1.33;0.40;;;12.10;73.40;;;;;;2493393;55;20926;-71
2023/12/23 02:33:17;;;;;;;0.90;0.30;;;12.10;73.40;;;;;;2494492;55;20958;-71
2023/12/23 02:35:45;;;;;;;0.75;0.30;;;12.10;73.40;;;;;;2266058;55;20993;-71
2023/12/23 02:38:12;;;;;;;1.12;0.30;;;12.10;73.40;;;;;;2494043;55;21099;-71
2023/12/23 02:40:39;;;;;;;1.12;0.35;;;12.10;73.50;;;;;;2265088;55;20947;-71
2023/12/23 02:43:06;;;;;;;1.15;0.35;;;12.10;73.50;;;;;;2494860;55;21063;-71
2023/12/23 02:45:33;;;;;;;0.65;0.30;;;12.00;73.30;;;;;;2265311;56;20974;-71
2023/12/23 02:47:59;;;;;;;1.12;0.40;;;12.00;73.30;;;;;;2485174;55;21661;-71
2023/12/23 02:50:25;;;;;;;0.20;0.15;;;12.00;73.40;;;;;;2493618;54;21031;-71
2023/12/23 02:52:52;;;;;;;1.02;0.30;;;12.00;73.40;;;;;;2268718;56;20934;-70
2023/12/23 02:55:19;;;;;;;1.27;0.50;;;12.00;73.40;;;;;;2493121;55;20955;-71
2023/12/23 02:57:46;;;;;;;2.20;0.35;;;12.00;73.50;;;;;;2263974;56;21554;-70
2023/12/23 03:00:13;;;;;;;0.95;0.40;;;12.00;73.50;;;;;;2493482;55;21493;-71
2023/12/23 03:02:39;;;;;;;0.47;0.20;;;12.00;73.50;;;;;;2471738;55;21021;-71
2023/12/23 03:05:08;;;;;;;0.98;0.30;;;12.00;73.40;;;;;;2258263;55;20960;-71
2023/12/23 03:07:37;;;;;;;1.37;0.40;;;12.00;73.40;;;;;;2260832;55;21772;-71
2023/12/23 03:10:03;;;;;;;0.82;0.30;;;12.00;73.40;;;;;;2478171;55;20966;-70
2023/12/23 03:12:30;;;;;;;1.33;0.30;;;12.00;73.50;;;;;;2250043;58;20912;-71
2023/12/23 03:14:56;;;;;;;0.68;0.30;;;12.00;73.70;;;;;;2261089;55;20945;-71
2023/12/23 03:17:25;;;;;;;0.95;0.30;;;12.00;73.50;;;;;;2488989;55;21076;-71
2023/12/23 03:19:55;;;;;;;1.23;0.37;;;11.90;73.50;;;;;;2489816;54;21003;-70
2023/12/23 03:22:21;;;;;;;1.23;0.28;;;12.00;73.50;;;;;;2476744;54;20951;-71
2023/12/23 03:24:48;;;;;;;0.82;0.35;;;12.00;73.50;;;;;;2483193;55;21027;-70
2023/12/23 03:27:15;;;;;;;1.42;0.40;;;11.90;73.40;;;;;;2251894;55;21048;-71
2023/12/23 03:29:42;;;;;;;0.80;0.32;;;11.90;73.40;;;;;;2502338;54;21601;-71
2023/12/23 03:32:08;;;;;;;0.77;0.30;;;11.90;73.40;;;;;;2273047;56;20954;-71
2023/12/23 03:34:34;;;;;;;0.77;0.32;;;11.90;73.40;;;;;;2505538;54;20941;-69
2023/12/23 03:37:00;;;;;;;1.25;0.50;;;11.90;73.40;;;;;;2274041;57;20946;-71
2023/12/23 03:39:27;;;;;;;2.20;0.40;;;11.90;73.40;;;;;;2261618;56;21057;-71
2023/12/23 03:41:53;;;;;;;1.25;0.30;;;11.90;73.40;;;;;;2493756;54;20978;-69
2023/12/23 03:44:22;;;;;;;1.48;0.40;;;11.90;73.40;;;;;;2471261;55;20974;-71
2023/12/23 03:46:49;;;;;;;1.30;0.40;;;11.90;73.30;;;;;;2255591;56;21020;-71
2023/12/23 03:49:15;;;;;;;0.82;0.35;;;11.90;73.40;;;;;;2478100;55;20943;-70
2023/12/23 03:51:42;;;;;;;1.40;0.40;;;11.90;73.40;;;;;;2483263;55;21040;-71
2023/12/23 03:54:09;;;;;;;1.65;0.40;;;11.90;73.40;;;;;;2255250;55;20992;-70
2023/12/23 03:56:35;;;;;;;1.10;0.30;;;11.90;73.40;;;;;;2456917;55;20959;-71
2023/12/23 03:59:01;;;;;;;1.42;0.43;;;11.90;73.30;;;;;;2479137;55;20967;-71
2023/12/23 04:01:28;;;;;;;1.67;0.40;;;11.90;73.30;;;;;;2277242;57;21060;-70
2023/12/23 04:03:54;;;;;;;0.75;0.35;;;11.90;73.30;;;;;;2509575;55;20928;-70
2023/12/23 04:06:21;;;;;;;0.93;0.40;;;11.90;73.30;;;;;;2280658;55;20936;-71
2023/12/23 04:08:48;;;;;;;1.37;0.50;;;11.90;73.30;;;;;;2280360;56;20974;-71
2023/12/23 04:11:15;;;;;;;1.08;0.40;;;11.80;73.50;;;;;;2514029;55;21429;-71
2023/12/23 04:13:41;;;;;;;1.45;0.43;;;11.80;73.20;;;;;;2281328;56;21718;-71
2023/12/23 04:16:07;;;;;;;1.55;0.50;;;11.80;73.20;;;;;;2266897;56;21017;-70
2023/12/23 04:18:34;;;;;;;1.33;0.50;;;11.80;73.30;;;;;;2483146;55;21349;-70
2023/12/23 04:21:02;;;;;;;0.85;0.40;;;11.80;73.40;;;;;;2259104;56;20955;-71
2023/12/23 04:23:28;;;;;;;2.17;0.40;;;11.80;73.40;;;;;;2484354;55;20946;-70
2023/12/23 04:25:54;;;;;;;1.23;0.40;;;11.80;73.40;;;;;;2469200;55;21371;-70
2023/12/23 04:28:24;;;;;;;1.00;0.40;;;11.80;73.40;;;;;;2255570;55;20978;-70
2023/12/23 04:30:55;;;;;;;1.15;0.50;;;11.80;73.40;;;;;;2261626;56;20959;-71
2023/12/23 04:33:22;;;;;;;1.23;0.30;;;11.80;73.30;;;;;;2255682;55;21840;-71
2023/12/23 04:35:49;;;;;;;2.83;0.60;;;11.80;73.40;;;;;;2482618;54;20970;-71
2023/12/23 04:38:16;;;;;;;1.80;0.52;;;11.80;73.50;;;;;;2483358;54;21390;-71
2023/12/23 04:40:43;;;;;;;2.35;0.75;;;11.80;73.50;;;;;;2483499;54;21839;-71
2023/12/23 04:43:09;;;;;;;2.80;1.08;;;11.80;73.40;;;;;;2256228;56;20962;-69
2023/12/23 04:45:36;;;;;;;3.33;0.73;;;11.80;73.40;;;;;;2256516;58;20983;-71
2023/12/23 04:48:03;;;;;;;1.87;0.70;;;11.80;73.40;;;;;;2482694;55;21032;-71
2023/12/23 04:50:33;;;;;;;1.98;0.75;;;11.80;73.30;;;;;;2483903;55;20945;-71
2023/12/23 04:53:00;;;;;;;1.35;0.50;;;11.80;73.20;;;;;;2468922;54;20978;-70
2023/12/23 04:55:26;;;;;;;2.95;0.80;;;11.80;73.30;;;;;;2479678;54;21531;-70
2023/12/23 04:57:53;;;;;;;1.30;0.60;;;11.80;73.30;;;;;;2256549;55;21015;-70
2023/12/23 05:00:19;;;;;;;1.02;0.50;;;11.80;73.30;;;;;;2489589;55;20974;-70
2023/12/23 05:02:45;;;;;;;2.08;0.62;;;11.80;73.30;;;;;;2257348;55;21002;-70
2023/12/23 05:05:16;;;;;;;1.85;0.55;;;11.80;73.40;;;;;;2487661;55;21097;-71
2023/12/23 05:07:43;;;;;;;2.97;0.90;;;11.80;73.40;;;;;;2261802;55;21481;-71
2023/12/23 05:10:09;;;;;;;1.65;0.70;;;11.80;73.40;;;;;;2254703;56;20986;-70
2023/12/23 05:12:36;;;;;;;1.25;0.50;;;11.80;73.50;;;;;;2262106;55;21043;-70
2023/12/23 05:15:02;;;;;;;1.27;0.52;;;11.80;73.50;;;;;;2484118;55;20950;-70
2023/12/23 05:17:28;;;;;;;1.48;0.50;;;11.80;73.50;;;;;;2482926;55;21510;-71
2023/12/23 05:23:24;;;;;;;1.92;0.55;;;11.80;73.00;;;;;;2482926;55;20951;-71
2023/12/23 05:25:50;;;;;;;0.62;0.40;;;11.80;73.50;;;;;;2254454;55;20988;-71
2023/12/23 05:28:17;;;;;;;1.40;0.50;;;11.80;73.50;;;;;;2242595;56;20987;-70
2023/12/23 05:30:43;;;;;;;1.33;0.50;;;11.80;73.50;;;;;;2262778;55;21029;-70
2023/12/23 05:33:10;;;;;;;1.62;0.52;;;11.70;73.30;;;;;;2482429;54;21417;-70
2023/12/23 05:35:37;;;;;;;0.88;0.47;;;11.70;73.40;;;;;;2483635;55;21093;-70
2023/12/23 05:38:04;;;;;;;0.73;0.40;;;11.70;73.40;;;;;;2484187;55;20975;-68
2023/12/23 05:40:30;;;;;;;0.95;0.45;;;11.80;73.50;;;;;;2486508;54;21326;-69
2023/12/23 05:42:56;;;;;;;0.88;0.40;;;11.70;73.50;;;;;;2487084;55;21400;-70
2023/12/23 05:45:22;;;;;;;1.00;0.30;;;11.70;73.50;;;;;;2489184;54;20940;-70
2023/12/23 05:47:50;;;;;;;1.10;0.50;;;11.80;73.50;;;;;;2256218;55;21274;-70
2023/12/23 05:50:17;;;;;;;0.55;0.30;;;11.80;73.60;;;;;;2256654;55;21046;-70
2023/12/23 05:52:46;;;;;;;0.32;0.30;;;11.70;73.40;;;;;;2261509;56;21018;-70
2023/12/23 05:55:13;;;;;;;0.62;0.30;;;11.80;73.50;;;;;;2255824;55;21038;-71
2023/12/23 05:57:42;;;;;;;2.03;0.40;;;11.80;73.50;;;;;;2260430;56;21794;-70
2023/12/23 06:00:12;;;;;;;0.80;0.30;;;11.80;73.60;;;;;;2256702;55;22091;-70
2023/12/23 06:02:38;;;;;;;0.88;0.40;;;11.80;73.50;;;;;;2261656;56;20918;-70
2023/12/23 06:05:06;;;;;;;0.77;0.30;;;11.80;73.50;;;;;;2255907;55;20966;-70
2023/12/23 06:07:34;;;;;;;0.50;0.20;;;11.80;73.50;;;;;;2260942;56;21030;-70
2023/12/23 06:10:01;;;;;;;0.68;0.30;;;11.80;73.50;;;;;;2470146;54;20945;-70
2023/12/23 06:12:28;;;;;;;1.27;0.40;;;11.80;73.50;;;;;;2248032;56;21082;-70
2023/12/23 06:14:56;;;;;;;1.10;0.40;;;11.80;73.50;;;;;;2256541;56;21109;-70
2023/12/23 06:17:23;;;;;;;0.40;0.20;;;11.80;73.60;;;;;;2258128;56;21484;-70
2023/12/23 06:19:49;;;;;;;0.47;0.28;;;11.80;73.50;;;;;;2486738;55;21371;-70
2023/12/23 06:22:15;;;;;;;0.55;0.20;;;11.80;73.60;;;;;;2496445;54;20959;-71
2023/12/23 06:24:41;;;;;;;1.23;0.40;;;11.80;73.50;;;;;;2482720;55;20958;-70
2023/12/23 06:27:10;;;;;;;0.82;0.30;;;11.80;73.40;;;;;;2490483;55;21535;-70
2023/12/23 06:29:36;;;;;;;1.17;0.45;;;11.80;73.50;;;;;;2482846;55;20951;-70
2023/12/23 06:32:02;;;;;;;1.42;0.45;;;11.80;73.50;;;;;;2489315;55;21320;-70
2023/12/23 06:34:29;;;;;;;1.20;0.40;;;11.80;73.50;;;;;;2478926;55;21752;-70
2023/12/23 06:36:56;;;;;;;0.70;0.30;;;11.80;73.50;;;;;;2483484;55;21508;-71
2023/12/23 06:39:24;;;;;;;0.32;0.22;;;11.80;73.50;;;;;;2255669;56;21038;-70
2023/12/23 06:41:51;;;;;;;0.37;0.20;;;11.80;73.40;;;;;;2482607;55;21022;-69
2023/12/23 06:44:17;;;;;;;1.30;0.60;;;11.80;73.40;;;;;;2256336;55;21097;-70
2023/12/23 06:46:43;;;;;;;0.55;0.37;;;11.80;73.40;;;;;;2254959;55;20978;-70
2023/12/23 06:49:10;;;;;;;0.62;0.30;;;11.80;73.40;;;;;;2482447;54;21042;-70
2023/12/23 06:51:36;;;;;;;0.82;0.40;;;11.80;73.40;;;;;;2261474;56;20991;-69
2023/12/23 06:54:03;;;;;;;0.77;0.30;;;11.80;73.80;;;;;;2481997;55;21015;-70
2023/12/23 06:56:29;;;;;;;0.55;0.30;;;11.80;73.50;;;;;;2259867;55;20999;-70
2023/12/23 06:58:55;;;;;;;1.73;0.30;;;11.80;73.50;;;;;;2261982;56;20959;-70
2023/12/23 07:02:02;;;;;;;0.50;0.30;;;11.80;73.50;;;;;;2255390;55;20986;-68
2023/12/23 07:04:28;;;;;;;0.68;0.40;;;11.80;73.00;;;;;;2255951;56;21086;-70
2023/12/23 07:06:55;;;;;;;0.28;0.20;;;11.80;73.50;;;;;;2499046;54;21699;-70
2023/12/23 07:09:21;;;;;;;1.83;0.50;;;11.80;73.50;;;;;;2494609;55;21003;-70
2023/12/23 07:11:50;;;;;;;1.10;0.40;;;11.80;73.50;;;;;;2482852;55;20950;-70
2023/12/23 07:14:18;;;;;;;1.92;0.70;;;11.80;73.40;;;;;;2483282;55;21022;-70
2023/12/23 07:16:44;;;;;;;0.98;0.40;;;11.80;73.50;;;;;;2489071;55;21608;-70
2023/12/23 07:19:10;;;;;;;1.10;0.40;;;11.80;73.50;;;;;;2486410;55;21798;-70
2023/12/23 07:21:37;;;;;;;0.85;0.30;;;11.80;73.50;;;;;;2257440;55;20990;-69
2023/12/23 07:24:04;;;;;;;0.57;0.30;;;11.80;73.40;;;;;;2485111;55;20946;-71
2023/12/23 07:26:30;;;;;;;0.90;0.47;;;11.80;73.50;;;;;;2502556;54;20944;-70
2023/12/23 07:28:57;;;;;;;0.50;0.30;;;11.80;73.40;;;;;;2486526;55;20958;-70
2023/12/23 07:31:23;;;;;;;2.28;0.60;;;11.80;73.40;;;;;;2483763;54;21026;-70
2023/12/23 07:33:54;;;;;;;1.92;0.68;;;11.80;73.40;;;;;;2483601;55;20970;-70
2023/12/23 07:36:20;;;;;;;1.75;0.80;;;11.80;74.10;;;;;;2483506;55;21008;-70
2023/12/23 07:38:46;;;;;;;2.35;0.80;;;11.80;73.50;;;;;;2259660;56;22168;-70
2023/12/23 07:41:14;;;;;;;2.00;0.90;;;11.80;73.50;;;;;;2256211;56;20942;-70
2023/12/23 07:43:41;;;;;;;1.10;0.50;;;11.80;73.40;;;;;;2255024;56;20946;-70
2023/12/23 07:46:08;;;;;;;0.60;0.35;;;11.80;73.30;;;;;;2483443;55;21058;-70
2023/12/23 07:48:34;;;;;;;1.70;0.40;;;11.80;73.40;;;;;;2255459;56;20982;-70
2023/12/23 07:51:07;;;;;;;1.12;0.40;;;11.90;73.40;;;;;;2256308;56;20943;-70
2023/12/23 07:53:33;;;;;;;0.90;0.40;;;11.90;73.30;;;;;;2483319;55;20994;-69
2023/12/23 07:55:59;;;;;;;0.88;0.47;;;11.90;73.50;;;;;;2256624;56;20967;-70
2023/12/23 07:58:26;;;;;;;2.28;0.37;;;11.90;73.50;;;;;;2483532;55;20959;-70
2023/12/23 08:00:52;;;;;;;1.52;0.50;;;11.90;73.40;;;;;;2483422;55;20941;-70
2023/12/23 08:03:19;;;;;;;0.70;0.40;;;11.90;73.40;;;;;;2489736;55;20939;-69
2023/12/23 08:05:45;;;;;;;0.65;0.30;;;11.90;73.30;;;;;;2483440;55;20951;-70
2023/12/23 08:08:12;;;;;;;1.23;0.50;;;11.90;73.30;;;;;;2490511;55;20983;-70
2023/12/23 08:10:38;;;;;;;1.85;0.50;;;11.90;73.30;;;;;;2260954;55;21059;-70
2023/12/23 08:13:05;;;;;;;1.10;0.50;;;11.90;73.40;;;;;;2484187;55;21480;-69
2023/12/23 08:15:31;;;;;;;1.05;0.35;;;11.90;73.30;;;;;;2462096;55;20956;-69
2023/12/23 08:17:58;;;;;;;1.27;0.30;;;11.90;73.30;;;;;;2484374;55;21022;-69
2023/12/23 08:20:26;;;;;;;0.75;0.40;;;11.90;73.20;;;;;;2483287;54;20953;-70
2023/12/23 08:22:52;;;;;;;0.75;0.40;;;11.90;73.30;;;;;;2484468;55;21062;-70
2023/12/23 08:25:18;;;;;;;1.30;0.40;;;11.90;73.30;;;;;;2256371;55;21862;-70
2023/12/23 08:27:45;;;;;;;0.82;0.30;;;11.90;73.40;;;;;;2482661;55;21058;-70
2023/12/23 08:30:11;;;;;;;3.17;0.60;;;11.90;73.40;;;;;;2490791;55;20931;-70
2023/12/23 08:32:37;;;;;;;1.87;0.60;;;12.00;73.50;;;;;;2486107;54;21184;-70
2023/12/23 08:35:05;;;;;;;2.03;0.50;;;11.90;73.40;;;;;;2256486;56;20962;-69
2023/12/23 08:37:32;;;;;;;0.90;0.40;;;12.00;73.50;;;;;;2483843;55;20923;-71
2023/12/23 08:39:58;;;;;;;1.52;0.50;;;12.00;73.60;;;;;;2483594;54;20934;-70
2023/12/23 08:42:24;;;;;;;5.68;0.73;;;12.00;73.60;;;;;;2483552;55;20991;-69
2023/12/23 08:44:52;;;;;;;1.25;0.50;;;12.00;73.60;;;;;;2485496;54;21022;-71
2023/12/23 08:47:18;;;;;;;2.20;0.80;;;12.00;73.60;;;;;;2248404;56;20982;-71
2023/12/23 08:49:45;;;;;;;1.60;0.60;;;12.00;73.60;;;;;;2483111;55;20966;-70
2023/12/23 08:52:12;;;;;;;1.33;0.52;;;12.00;73.50;;;;;;2264419;55;21018;-71
2023/12/23 08:54:39;;;;;;;1.15;0.40;;;12.00;73.50;;;;;;2257391;55;20990;-69
2023/12/23 08:57:08;;;;;;;1.33;0.50;;;12.00;73.50;;;;;;2488009;55;21036;-70
2023/12/23 08:59:37;;;;;;;1.52;0.50;;;12.10;73.50;;;;;;2247619;55;21056;-70
2023/12/23 09:02:04;;;;;;;1.70;0.40;;;12.10;73.50;;;;;;2483721;55;20975;-70
2023/12/23 09:04:31;;;;;;;2.58;0.50;;;12.10;73.50;;;;;;2483062;54;21876;-69
2023/12/23 09:06:58;;;;;;;0.82;0.37;;;12.10;73.50;;;;;;2483900;55;21014;-70
2023/12/23 09:09:24;;;;;;;1.15;0.60;;;12.10;73.60;;;;;;2483686;54;21507;-70
2023/12/23 09:11:51;;;;;;;1.62;0.68;;;12.10;73.60;;;;;;2483590;54;21121;-70
2023/12/23 09:14:35;;;;;;;1.25;0.50;;;12.10;73.50;;;;;;2483876;54;21010;-70
2023/12/23 09:17:02;;;;;;;0.98;0.40;;;12.10;72.90;;;;;;2484287;54;21010;-69
2023/12/23 09:19:28;;;;;;;0.70;0.40;;;12.10;73.60;;;;;;2266310;55;21004;-69
2023/12/23 09:21:55;;;;;;;1.10;0.32;;;12.20;73.70;;;;;;2256537;55;21002;-69
2023/12/23 09:24:22;;;;;;;0.57;0.30;;;12.20;73.70;;;;;;2255979;56;21024;-70
2023/12/23 09:26:48;;;;;;;1.75;0.30;;;12.20;73.70;;;;;;2483257;55;21491;-70
2023/12/23 09:29:15;;;;;;;0.88;0.45;;;12.20;73.70;;;;;;2255740;55;20967;-69
2023/12/23 09:31:43;;;;;;;1.48;0.50;;;12.20;73.60;;;;;;2255083;55;21032;-70
2023/12/23 09:34:09;;;;;;;2.85;1.08;;;12.20;73.60;;;;;;2479966;54;21065;-69
2023/12/23 09:36:35;;;;;;;3.92;1.40;;;12.30;73.30;;;;;;2246248;56;20970;-70
2023/12/23 09:39:02;;;;;;;5.95;1.80;;;12.30;73.30;;;;;;2255709;56;21791;-70
2023/12/23 09:41:29;;;;;;;7.57;3.12;;;12.30;73.30;;;;;;2482195;55;21010;-69
2023/12/23 09:43:55;;;;;;;6.95;2.25;;;12.30;73.40;;;;;;2259035;56;20962;-70
2023/12/23 09:46:24;;;;;;;5.00;2.10;;;12.30;73.30;;;;;;2263150;55;20958;-70
2023/12/23 09:48:50;;;;;;;3.10;1.10;;;12.30;73.30;;;;;;2486166;54;20974;-70
2023/12/23 09:51:17;;;;;;;3.25;1.00;;;12.40;73.50;;;;;;2489401;55;20957;-70
2023/12/23 09:53:45;;;;;;;1.55;0.60;;;12.40;73.50;;;;;;2260287;55;20963;-71
2023/12/23 09:56:12;;;;;;;2.10;0.65;;;12.40;73.50;;;;;;2255925;55;21947;-70
2023/12/23 09:58:38;;;;;;;1.05;0.47;;;12.40;73.50;;;;;;2477658;55;21002;-70
2023/12/23 10:01:04;;;;;;;1.70;0.65;;;12.40;73.50;;;;;;2490893;55;21764;-70
2023/12/23 10:03:31;;;;;;;1.55;0.40;;;12.40;73.50;;;;;;2485434;55;20970;-69
2023/12/23 10:06:00;;;;;;;0.55;0.25;;;12.50;73.60;;;;;;2486187;54;21479;-71
2023/12/23 10:08:27;;;;;;;1.33;0.40;;;12.50;73.50;;;;;;2270300;56;21071;-70
2023/12/23 10:10:54;;;;;;;2.65;0.70;;;12.50;73.60;;;;;;2261068;56;20947;-71
2023/12/23 10:13:21;;;;;;;1.45;0.57;;;12.50;73.60;;;;;;2255484;56;20974;-70
2023/12/23 10:15:47;;;;;;;1.45;0.57;;;12.50;73.60;;;;;;2487824;54;21088;-71
2023/12/23 10:18:13;;;;;;;1.60;0.50;;;12.50;73.40;;;;;;2256331;56;20997;-70
2023/12/23 10:20:41;;;;;;;1.67;0.60;;;12.60;73.50;;;;;;2260744;57;20964;-70
2023/12/23 10:23:09;;;;;;;1.70;0.60;;;12.60;73.50;;;;;;2261595;57;20936;-70
2023/12/23 10:25:35;;;;;;;2.03;0.62;;;12.60;73.50;;;;;;2483904;55;21035;-70
2023/12/23 10:28:01;;;;;;;2.05;0.82;;;12.60;73.60;;;;;;2477196;55;21559;-69
2023/12/23 10:30:29;;;;;;;3.95;1.80;;;12.60;73.60;;;;;;2251262;56;20959;-70
2023/12/23 10:32:58;;;;;;;5.37;2.97;;;12.60;74.20;;;;;;2251001;56;21031;-70
2023/12/23 10:35:28;;;;;;;3.55;1.75;;;12.70;73.50;;;;;;2478368;55;20990;-71
2023/12/23 10:37:58;;;;;;;2.87;1.50;;;12.60;73.30;;;;;;2477352;55;20958;-70
2023/12/23 10:40:25;;;;;;;2.65;1.15;;;12.70;73.30;;;;;;2251159;56;21491;-70
2023/12/23 10:43:39;;;;;;;2.83;1.17;;;12.70;73.40;;;;;;2478608;55;21022;-71
2023/12/23 10:46:06;;;;;;;2.73;1.00;;;12.70;72.60;;;;;;2473545;55;21147;-71
2023/12/23 10:48:35;;;;;;;2.70;0.88;;;12.70;73.20;;;;;;2477248;55;20996;-70
2023/12/23 10:51:02;;;;;;;2.53;0.80;;;12.70;73.10;;;;;;2458725;55;20979;-71
2023/12/23 10:53:29;;;;;;;1.60;0.80;;;12.70;73.30;;;;;;2500968;54;20969;-70
2023/12/23 10:55:55;;;;;;;2.08;0.80;;;12.70;73.10;;;;;;2484452;54;22271;-70
2023/12/23 10:58:22;;;;;;;2.35;0.90;;;12.70;73.00;;;;;;2481251;55;20987;-69
2023/12/23 11:00:49;;;;;;;2.40;0.40;;;12.70;72.90;;;;;;2476792;55;20954;-70
2023/12/23 11:03:15;;;;;;;0.90;0.40;;;12.70;73.00;;;;;;2478088;55;21014;-70
2023/12/23 11:05:42;;;;;;;1.40;0.50;;;12.70;73.20;;;;;;2251378;56;21762;-70
2023/12/23 11:08:12;;;;;;;1.08;0.43;;;12.70;73.30;;;;;;2250024;56;21845;-70
2023/12/23 11:10:39;;;;;;;1.70;0.62;;;12.80;73.30;;;;;;2234658;56;21835;-70
2023/12/23 11:13:07;;;;;;;2.47;0.60;;;12.80;73.30;;;;;;2239042;56;21034;-70
2023/12/23 11:15:39;;;;;;;0.80;0.45;;;12.80;74.00;;;;;;2246892;56;21446;-70
2023/12/23 11:18:06;;;;;;;1.30;0.52;;;12.80;73.20;;;;;;2235080;56;21046;-70
2023/12/23 11:20:54;;;;;;;1.50;0.50;;;12.80;73.40;;;;;;2466579;55;21005;-69
2023/12/23 11:23:30;;;;;;;0.82;0.40;;;12.90;73.00;;;;;;2242610;57;21038;-69
2023/12/23 11:25:57;;;;;;;1.10;0.45;;;12.90;73.20;;;;;;2236729;56;21059;-70
2023/12/23 11:28:30;;;;;;;1.67;0.55;;;12.90;73.70;;;;;;2240890;56;20932;-70
2023/12/23 11:31:12;;;;;;;1.92;0.50;;;12.90;73.40;;;;;;2472930;55;20962;-71
2023/12/23 11:33:39;;;;;;;1.08;0.52;;;13.00;72.90;;;;;;2246646;57;21015;-69
2023/12/23 11:36:06;;;;;;;1.55;0.50;;;13.00;73.40;;;;;;2237061;56;20934;-70
2023/12/23 11:38:50;;;;;;;0.95;0.47;;;13.00;73.30;;;;;;2240689;55;21507;-69
2023/12/23 11:41:16;;;;;;;2.40;0.98;;;13.00;72.60;;;;;;2246882;56;21056;-70
2023/12/23 11:43:44;;;;;;;5.07;1.73;;;13.10;73.30;;;;;;2478853;55;21025;-70
2023/12/23 11:46:10;;;;;;;7.65;2.33;;;13.00;73.30;;;;;;2478787;55;20991;-70
2023/12/23 11:48:36;;;;;;;4.03;1.52;;;13.00;73.10;;;;;;2236393;56;21019;-70
2023/12/23 11:51:03;;;;;;;2.40;0.95;;;13.10;73.20;;;;;;2452665;55;20958;-70
2023/12/23 11:53:29;;;;;;;2.87;0.95;;;13.10;73.20;;;;;;2450289;56;20973;-71
2023/12/23 11:55:56;;;;;;;2.67;0.80;;;13.10;73.10;;;;;;2245650;56;20943;-70
2023/12/23 11:58:22;;;;;;;2.50;1.00;;;13.10;73.10;;;;;;2236432;56;21833;-68
2023/12/23 12:00:52;;;;;;;1.50;0.60;;;13.10;73.80;;;;;;2254444;55;20974;-69
2023/12/23 12:03:20;;;;;;;1.90;0.73;;;13.10;72.90;;;;;;2471171;55;21022;-70
2023/12/23 12:05:46;;;;;;;1.98;0.60;;;13.10;73.00;;;;;;2451228;55;20954;-70
2023/12/23 12:08:12;;;;;;;1.33;0.60;;;13.10;73.00;;;;;;2246660;57;20999;-70
2023/12/23 12:10:39;;;;;;;1.62;0.60;;;13.10;72.90;;;;;;2236061;56;21734;-69
2023/12/23 12:13:05;;;;;;;1.52;0.50;;;13.10;72.90;;;;;;2247210;56;21022;-71
2023/12/23 12:15:31;;;;;;;1.40;0.60;;;13.10;72.80;;;;;;2247425;57;21038;-70
2023/12/23 12:18:00;;;;;;;2.15;0.82;;;13.10;72.80;;;;;;2274395;56;21798;-70
2023/12/23 12:20:27;;;;;;;1.00;0.40;;;13.20;72.90;;;;;;2243839;57;21002;-70
2023/12/23 12:22:53;;;;;;;1.45;0.52;;;13.10;72.90;;;;;;2236578;56;21758;-70
2023/12/23 12:25:21;;;;;;;0.82;0.30;;;13.20;72.90;;;;;;2262136;56;20944;-70
2023/12/23 12:27:47;;;;;;;1.50;0.60;;;13.20;72.80;;;;;;2461786;55;20975;-70
2023/12/23 12:30:14;;;;;;;0.93;0.40;;;13.20;72.80;;;;;;2478234;55;20959;-70
2023/12/23 12:32:46;;;;;;;0.90;0.40;;;13.20;72.90;;;;;;2254914;56;20950;-70
2023/12/23 12:35:12;;;;;;;;;;;13.20;72.60;;;;;;2500890;55;20957;-70
2023/12/23 12:37:39;;;;;;;1.30;0.55;;;13.30;71.70;;;;;;2503249;55;20068;-70
2023/12/23 12:40:09;;;;;;;1.37;0.30;;;13.30;73.10;;;;;;2271268;56;21073;-70
2023/12/23 12:42:44;;;;;;;1.05;0.40;;;13.30;72.70;;;;;;2272248;57;20928;-70
2023/12/23 12:45:14;;;;;;;1.55;0.45;;;13.30;72.60;;;;;;2241871;56;21053;-70
2023/12/23 12:47:45;;;;;;;0.35;0.20;;;13.30;72.70;;;;;;2468934;55;20936;-69
2023/12/23 12:50:17;;;;;;;1.20;0.37;;;13.30;72.30;;;;;;2248170;56;21366;-70
2023/12/23 12:52:45;;;;;;;0.80;0.30;;;13.30;72.40;;;;;;2255943;56;20970;-70
2023/12/23 12:55:13;;;;;;;0.62;0.30;;;13.30;72.70;;;;;;2472275;55;21960;-70
2023/12/23 12:57:40;;;;;;;0.40;0.22;;;13.30;72.60;;;;;;2242820;56;20973;-70
2023/12/23 13:00:07;;;;;;;0.60;0.30;;;13.30;72.60;;;;;;2471842;55;20947;-70
2023/12/23 13:02:34;;;;;;;0.20;0.17;;;13.30;72.50;;;;;;2246379;57;21023;-69
2023/12/23 13:05:04;;;;;;;0.17;0.17;;;13.30;72.40;;;;;;2245644;56;20945;-71